Time;durP1;ratioP1;P1;durP2;ratioP2;P2;SDS_P1;SDS_P2;PMS_P1;PMS_P2;Temp;Humidity;BMP_temperature;BMP_pressure;BME280_temperature;BME280_humidity;BME280_pressure;Samples;Min_cycle;Max_cycle;Signal;HPM_P1;HPM_P2
2022/05/07 00:01:11;;;;;;;5.38;4.95;;;;;;;;;;4986476;28;20377;-83
2022/05/07 00:03:39;;;;;;;5.90;5.32;;;;;;;;;;5002595;28;20498;-85
2022/05/07 00:06:06;;;;;;;6.35;5.75;;;;;;;;;;4985727;28;20061;-82
2022/05/07 00:08:33;;;;;;;6.03;5.45;;;;;;;;;;4981366;28;20133;-83
2022/05/07 00:11:00;;;;;;;6.18;5.57;;;;;;;;;;4982898;28;20069;-83
2022/05/07 00:13:27;;;;;;;9.18;6.13;;;;;;;;;;4982003;28;20061;-83
2022/05/07 00:18:40;;;;;;;6.97;6.38;;;;;;;;;;4998604;28;20510;-83
2022/05/07 00:21:08;;;;;;;6.13;5.53;;;;;;;;;;4983377;28;20050;-84
2022/05/07 00:23:35;;;;;;;6.22;5.63;;;;;;;;;;4983944;28;20064;-83
2022/05/07 00:26:02;;;;;;;9.68;5.60;;;;;;;;;;4983664;28;20108;-84
2022/05/07 00:28:30;;;;;;;6.35;5.75;;;;;;;;;;4984233;28;20066;-84
2022/05/07 00:30:57;;;;;;;5.85;5.28;;;;;;;;;;4984666;28;20050;-83
2022/05/07 00:33:24;;;;;;;7.55;6.13;;;;;;;;;;4982222;28;20422;-83
2022/05/07 00:35:51;;;;;;;6.40;5.80;;;;;;;;;;4997567;28;20046;-82
2022/05/07 00:40:53;;;;;;;6.57;6.05;;;;;;;;;;4994868;28;20073;-84
2022/05/07 00:43:20;;;;;;;6.78;6.18;;;;;;;;;;4995185;28;20073;-84
2022/05/07 00:45:47;;;;;;;9.90;6.68;;;;;;;;;;4995014;28;20050;-84
2022/05/07 00:48:15;;;;;;;9.82;7.15;;;;;;;;;;4995448;28;20057;-84
2022/05/07 00:53:30;;;;;;;6.90;6.20;;;;;;;;;;4996468;28;20123;-84
2022/05/07 00:55:57;;;;;;;7.40;6.70;;;;;;;;;;4995564;28;20137;-84
2022/05/07 00:58:24;;;;;;;7.90;7.00;;;;;;;;;;4995706;28;20046;-85
2022/05/07 01:00:53;;;;;;;7.55;6.57;;;;;;;;;;4995026;28;20057;-84
2022/05/07 01:03:21;;;;;;;7.38;6.68;;;;;;;;;;4995254;28;20046;-84
2022/05/07 01:05:49;;;;;;;6.80;6.10;;;;;;;;;;4994848;28;20506;-84
2022/05/07 01:08:17;;;;;;;8.55;5.93;;;;;;;;;;4996545;28;20050;-84
2022/05/07 01:10:44;;;;;;;6.97;6.00;;;;;;;;;;4996254;28;20089;-85
2022/05/07 01:13:12;;;;;;;6.68;5.95;;;;;;;;;;4995292;28;20058;-84
2022/05/07 01:18:15;;;;;;;10.18;5.97;;;;;;;;;;4936887;29;20051;-83
2022/05/07 01:20:43;;;;;;;6.30;5.70;;;;;;;;;;4952644;28;20067;-84
2022/05/07 01:23:10;;;;;;;7.05;5.32;;;;;;;;;;4952633;29;20047;-85
2022/05/07 01:25:37;;;;;;;7.10;5.97;;;;;;;;;;4937398;29;20079;-85
2022/05/07 01:28:05;;;;;;;7.40;6.53;;;;;;;;;;4936236;29;20458;-85
2022/05/07 01:30:33;;;;;;;8.40;6.22;;;;;;;;;;4936286;29;20056;-85
2022/05/07 01:33:01;;;;;;;11.15;6.65;;;;;;;;;;4935907;29;20055;-84
2022/05/07 01:35:28;;;;;;;7.75;6.63;;;;;;;;;;4936447;29;20052;-85
2022/05/07 01:37:55;;;;;;;7.45;6.43;;;;;;;;;;4935254;29;20142;-84
2022/05/07 01:40:22;;;;;;;7.72;6.93;;;;;;;;;;4938141;29;20086;-83
2022/05/07 01:42:49;;;;;;;7.43;6.72;;;;;;;;;;4938104;29;20075;-86
2022/05/07 01:45:16;;;;;;;11.15;7.20;;;;;;;;;;4937712;29;20098;-86
2022/05/07 01:50:29;;;;;;;7.47;6.70;;;;;;;;;;4939574;29;20056;-86
2022/05/07 01:52:56;;;;;;;7.82;6.95;;;;;;;;;;4955340;23;20505;-86
2022/05/07 01:55:24;;;;;;;7.72;6.53;;;;;;;;;;5001771;28;20081;-85
2022/05/07 01:57:52;;;;;;;7.13;6.43;;;;;;;;;;5003934;28;20050;-86
2022/05/07 02:00:19;;;;;;;7.65;6.90;;;;;;;;;;5005495;28;20070;-86
2022/05/07 02:02:46;;;;;;;9.50;7.38;;;;;;;;;;5005423;28;20578;-86
2022/05/07 02:05:13;;;;;;;8.80;7.25;;;;;;;;;;5007139;28;20105;-86
2022/05/07 02:07:40;;;;;;;12.38;8.15;;;;;;;;;;5023790;22;20085;-85
2022/05/07 02:10:08;;;;;;;13.40;7.80;;;;;;;;;;5025442;28;20537;-86
2022/05/07 02:12:35;;;;;;;9.63;7.68;;;;;;;;;;5025469;28;20057;-85
2022/05/07 02:15:02;;;;;;;8.15;7.45;;;;;;;;;;5026033;28;20054;-84
2022/05/07 02:17:30;;;;;;;10.07;7.20;;;;;;;;;;5027045;28;20085;-86
2022/05/07 02:19:57;;;;;;;12.30;7.43;;;;;;;;;;5025405;28;20054;-85
2022/05/07 02:22:25;;;;;;;9.02;7.65;;;;;;;;;;5025962;28;20061;-85
2022/05/07 02:24:52;;;;;;;7.80;7.05;;;;;;;;;;5020023;28;20050;-86
2022/05/07 02:27:19;;;;;;;8.43;7.63;;;;;;;;;;5016293;28;20050;-85
2022/05/07 02:29:47;;;;;;;7.45;6.68;;;;;;;;;;5016013;28;20050;-86
2022/05/07 02:32:14;;;;;;;8.70;7.68;;;;;;;;;;5016969;28;20074;-85
2022/05/07 02:34:42;;;;;;;10.57;8.27;;;;;;;;;;5015789;28;20069;-85
2022/05/07 02:37:09;;;;;;;12.27;8.98;;;;;;;;;;5016893;28;20046;-85
2022/05/07 02:39:37;;;;;;;10.55;8.82;;;;;;;;;;5015286;28;20056;-85
2022/05/07 02:44:51;;;;;;;10.02;7.75;;;;;;;;;;5027724;28;20042;-86
2022/05/07 02:47:18;;;;;;;13.23;8.68;;;;;;;;;;5024527;28;20117;-85
2022/05/07 02:49:45;;;;;;;8.38;7.68;;;;;;;;;;5024566;28;20141;-86
2022/05/07 02:52:12;;;;;;;10.88;8.18;;;;;;;;;;5025203;28;20088;-85
2022/05/07 02:54:39;;;;;;;9.25;8.30;;;;;;;;;;5024753;28;20076;-85
2022/05/07 02:57:07;;;;;;;9.75;8.75;;;;;;;;;;5025249;28;20050;-85
2022/05/07 02:59:34;;;;;;;13.10;9.35;;;;;;;;;;5024260;28;20434;-85
2022/05/07 03:02:01;;;;;;;10.35;9.20;;;;;;;;;;5027317;28;20118;-85
2022/05/07 03:04:28;;;;;;;11.27;9.00;;;;;;;;;;5025408;28;20046;-85
2022/05/07 03:06:55;;;;;;;10.40;9.30;;;;;;;;;;5025999;28;20046;-85
2022/05/07 03:09:23;;;;;;;10.48;8.23;;;;;;;;;;5026963;28;20057;-87
2022/05/07 03:11:50;;;;;;;13.95;8.02;;;;;;;;;;5026764;28;20073;-85
2022/05/07 03:14:17;;;;;;;9.35;7.70;;;;;;;;;;5027136;28;20054;-87
2022/05/07 03:16:46;;;;;;;10.30;7.80;;;;;;;;;;5027594;28;20049;-85
2022/05/07 03:19:14;;;;;;;10.73;8.05;;;;;;;;;;5029263;28;20071;-85
2022/05/07 03:21:42;;;;;;;7.88;7.00;;;;;;;;;;5029099;28;20496;-85
2022/05/07 03:24:10;;;;;;;11.18;7.93;;;;;;;;;;5029261;28;20056;-85
2022/05/07 03:26:37;;;;;;;8.80;8.00;;;;;;;;;;5031938;28;20046;-85
2022/05/07 03:29:05;;;;;;;10.65;9.00;;;;;;;;;;5032906;28;20054;-84
2022/05/07 03:31:32;;;;;;;9.93;8.50;;;;;;;;;;5035834;28;20069;-84
2022/05/07 03:33:59;;;;;;;9.57;7.75;;;;;;;;;;5028124;28;20112;-84
2022/05/07 03:36:26;;;;;;;9.60;8.70;;;;;;;;;;5024730;28;20053;-84
2022/05/07 03:38:54;;;;;;;10.18;8.93;;;;;;;;;;5026202;28;20080;-84
2022/05/07 03:41:21;;;;;;;10.48;8.77;;;;;;;;;;5023552;28;20100;-84
2022/05/07 03:43:48;;;;;;;11.57;9.20;;;;;;;;;;5025862;28;20111;-84
2022/05/07 03:46:15;;;;;;;16.25;9.93;;;;;;;;;;5024109;28;20049;-84
2022/05/07 03:48:42;;;;;;;9.40;8.48;;;;;;;;;;5023589;28;20096;-84
2022/05/07 03:51:09;;;;;;;9.57;8.38;;;;;;;;;;5023531;28;20173;-84
2022/05/07 03:53:37;;;;;;;10.25;9.23;;;;;;;;;;5024250;28;20077;-84
2022/05/07 03:56:05;;;;;;;12.65;11.00;;;;;;;;;;5023669;28;20491;-84
2022/05/07 03:58:34;;;;;;;20.17;11.00;;;;;;;;;;5023526;28;20349;-85
2022/05/07 04:01:04;;;;;;;12.32;10.20;;;;;;;;;;5023419;28;20052;-85
2022/05/07 04:03:31;;;;;;;12.88;10.23;;;;;;;;;;5022736;28;20119;-86
2022/05/07 04:05:59;;;;;;;10.65;9.55;;;;;;;;;;5022595;28;20606;-84
2022/05/07 04:08:26;;;;;;;10.90;9.80;;;;;;;;;;5022956;28;20438;-84
2022/05/07 04:10:53;;;;;;;13.18;10.68;;;;;;;;;;5022745;28;20133;-85
2022/05/07 04:13:20;;;;;;;11.60;10.02;;;;;;;;;;5022861;28;20057;-84
2022/05/07 04:15:47;;;;;;;11.95;10.85;;;;;;;;;;5022485;28;20050;-84
2022/05/07 04:18:15;;;;;;;12.73;8.98;;;;;;;;;;5017504;28;20081;-85
2022/05/07 04:20:43;;;;;;;10.98;9.88;;;;;;;;;;5012465;28;20049;-84
2022/05/07 04:23:11;;;;;;;14.05;10.30;;;;;;;;;;5017866;28;20077;-84
2022/05/07 04:25:38;;;;;;;12.75;11.05;;;;;;;;;;5023001;28;20370;-84
2022/05/07 04:28:06;;;;;;;15.05;11.57;;;;;;;;;;5022850;28;20053;-84
2022/05/07 04:30:33;;;;;;;14.60;11.05;;;;;;;;;;5024613;28;20054;-84
2022/05/07 04:33:00;;;;;;;11.27;10.13;;;;;;;;;;5021973;28;20048;-84
2022/05/07 04:35:29;;;;;;;13.90;12.43;;;;;;;;;;5021244;28;20077;-85
2022/05/07 04:37:56;;;;;;;15.43;10.73;;;;;;;;;;5020959;28;20109;-86
2022/05/07 04:40:23;;;;;;;14.68;12.80;;;;;;;;;;5021732;28;20080;-84
2022/05/07 04:42:50;;;;;;;12.27;11.02;;;;;;;;;;5021463;28;20050;-84
2022/05/07 04:45:18;;;;;;;12.63;10.50;;;;;;;;;;5023748;28;20069;-84
2022/05/07 04:47:45;;;;;;;13.35;10.93;;;;;;;;;;5021826;28;20054;-85
2022/05/07 04:50:13;;;;;;;13.27;10.15;;;;;;;;;;5021349;28;20078;-85
2022/05/07 04:52:40;;;;;;;10.20;9.18;;;;;;;;;;5022152;28;20050;-84
2022/05/07 04:55:07;;;;;;;12.00;10.05;;;;;;;;;;5020670;28;20049;-86
2022/05/07 04:57:34;;;;;;;22.55;15.52;;;;;;;;;;5020492;28;20054;-85
2022/05/07 05:00:03;;;;;;;16.90;14.93;;;;;;;;;;5021453;28;20050;-84
2022/05/07 05:02:30;;;;;;;17.60;15.80;;;;;;;;;;5020852;28;20049;-85
2022/05/07 05:04:57;;;;;;;18.95;13.50;;;;;;;;;;5022071;28;20121;-86
2022/05/07 05:07:24;;;;;;;16.33;14.63;;;;;;;;;;5020650;28;20578;-86
2022/05/07 05:09:52;;;;;;;16.17;12.73;;;;;;;;;;5026248;28;20058;-84
2022/05/07 05:12:19;;;;;;;13.35;11.98;;;;;;;;;;5022048;28;20367;-85
2022/05/07 05:15:01;;;;;;;9.68;7.30;;;;;;;;;;5024188;28;20077;-86
2022/05/07 05:17:28;;;;;;;6.30;5.80;;;;;;;;;;5020850;28;20061;-85
2022/05/07 05:19:56;;;;;;;6.07;4.03;;;;;;;;;;5020832;28;20108;-85
2022/05/07 05:22:24;;;;;;;4.30;2.80;;;;;;;;;;5019363;28;20515;-85
2022/05/07 05:24:51;;;;;;;2.60;2.40;;;;;;;;;;5020984;28;20050;-85
2022/05/07 05:27:18;;;;;;;4.97;2.42;;;;;;;;;;5020640;28;20108;-86
2022/05/07 05:29:46;;;;;;;2.38;2.13;;;;;;;;;;5022874;28;20077;-86
2022/05/07 05:32:19;;;;;;;2.70;2.25;;;;;;;;;;5018852;28;20096;-85
2022/05/07 05:34:48;;;;;;;3.38;2.20;;;;;;;;;;5005806;28;20133;-85
2022/05/07 05:37:16;;;;;;;3.70;1.77;;;;;;;;;;5019520;28;20550;-88
2022/05/07 05:39:44;;;;;;;1.98;1.83;;;;;;;;;;5003559;28;20081;-85
2022/05/07 05:42:11;;;;;;;1.95;1.63;;;;;;;;;;5001485;28;20047;-86
2022/05/07 05:44:40;;;;;;;1.60;1.50;;;;;;;;;;5002318;28;20081;-86
2022/05/07 05:47:08;;;;;;;3.28;1.55;;;;;;;;;;5002888;28;20046;-85
2022/05/07 05:49:35;;;;;;;2.78;1.58;;;;;;;;;;4999451;28;20050;-85
2022/05/07 05:52:03;;;;;;;2.25;1.73;;;;;;;;;;5005192;28;20054;-85
2022/05/07 05:54:30;;;;;;;2.10;1.75;;;;;;;;;;4999806;28;20050;-86
2022/05/07 05:56:59;;;;;;;2.33;1.80;;;;;;;;;;4998036;28;20058;-84
2022/05/07 05:59:26;;;;;;;1.92;1.75;;;;;;;;;;4998497;28;20503;-85
2022/05/07 06:01:55;;;;;;;8.15;1.65;;;;;;;;;;4994124;28;20105;-86
2022/05/07 06:04:23;;;;;;;2.72;1.70;;;;;;;;;;4995192;28;20097;-86
2022/05/07 06:06:50;;;;;;;1.60;1.50;;;;;;;;;;4993628;28;20077;-86
2022/05/07 06:09:17;;;;;;;2.05;1.70;;;;;;;;;;4994526;28;20129;-86
2022/05/07 06:11:44;;;;;;;1.95;1.83;;;;;;;;;;4993955;28;20050;-87
2022/05/07 06:14:11;;;;;;;1.80;1.70;;;;;;;;;;4994215;28;20125;-86
2022/05/07 06:16:38;;;;;;;4.10;1.52;;;;;;;;;;4993397;28;20569;-85
2022/05/07 06:19:07;;;;;;;1.30;1.25;;;;;;;;;;4994646;28;20137;-86
2022/05/07 06:21:34;;;;;;;3.67;1.58;;;;;;;;;;4993447;28;20097;-87
2022/05/07 06:29:59;;;;;;;7.97;1.80;;;;;;;;;;4994224;28;20046;-86
2022/05/07 06:32:34;;;;;;;22.73;2.53;;;;;;;;;;4994341;28;20051;-86
2022/05/07 06:35:06;;;;;;;13.15;1.63;;;;;;;;;;4993123;28;20093;-85
2022/05/07 06:37:34;;;;;;;13.65;2.63;;;;;;;;;;4992978;28;20076;-86
2022/05/07 06:40:13;;;;;;;17.63;2.42;;;;;;;;;;4994102;28;20082;-87
2022/05/07 06:42:41;;;;;;;10.77;1.95;;;;;;;;;;4992507;28;20134;-86
2022/05/07 06:45:12;;;;;;;11.10;2.10;;;;;;;;;;4996146;28;20131;-86
2022/05/07 06:47:39;;;;;;;32.90;3.50;;;;;;;;;;4997887;28;20137;-86
2022/05/07 06:50:07;;;;;;;26.77;3.45;;;;;;;;;;4991040;23;20066;-88
2022/05/07 06:52:42;;;;;;;22.20;3.53;;;;;;;;;;4977121;28;20137;-88
2022/05/07 06:55:12;;;;;;;24.35;3.67;;;;;;;;;;4976409;28;20089;-89
2022/05/07 06:57:39;;;;;;;22.80;3.28;;;;;;;;;;4976247;28;20145;-88
2022/05/07 07:00:07;;;;;;;21.95;3.90;;;;;;;;;;4977615;28;20511;-88
2022/05/07 07:02:34;;;;;;;6.70;2.00;;;;;;;;;;4977494;28;20118;-88
2022/05/07 07:05:03;;;;;;;5.93;2.10;;;;;;;;;;4976005;28;20058;-88
2022/05/07 07:07:31;;;;;;;18.48;2.70;;;;;;;;;;4977477;28;20047;-88
2022/05/07 07:09:59;;;;;;;27.30;3.92;;;;;;;;;;4977041;28;20078;-88
2022/05/07 07:12:29;;;;;;;16.25;3.22;;;;;;;;;;4977944;28;20059;-88
2022/05/07 07:15:04;;;;;;;11.73;2.47;;;;;;;;;;4977135;28;20138;-89
2022/05/07 07:17:32;;;;;;;18.38;3.05;;;;;;;;;;4975885;28;20105;-88
2022/05/07 07:20:00;;;;;;;6.25;2.10;;;;;;;;;;4976072;28;20051;-88
2022/05/07 07:22:28;;;;;;;5.80;1.67;;;;;;;;;;4975911;28;20065;-88
2022/05/07 07:24:55;;;;;;;14.75;2.63;;;;;;;;;;4975631;28;20042;-88
2022/05/07 07:27:26;;;;;;;16.48;2.38;;;;;;;;;;4976552;28;20508;-88
2022/05/07 07:29:53;;;;;;;11.95;2.45;;;;;;;;;;4975652;28;20086;-87
2022/05/07 07:32:21;;;;;;;14.32;2.78;;;;;;;;;;4976933;28;20099;-88
2022/05/07 07:34:48;;;;;;;7.63;1.83;;;;;;;;;;4976207;28;20078;-89
2022/05/07 07:37:15;;;;;;;10.65;2.33;;;;;;;;;;4975571;28;20086;-88
2022/05/07 07:39:42;;;;;;;14.13;2.53;;;;;;;;;;4974297;28;20111;-88
2022/05/07 07:42:10;;;;;;;11.90;2.60;;;;;;;;;;4976547;28;20051;-88
2022/05/07 07:44:37;;;;;;;6.15;2.25;;;;;;;;;;4975960;28;20089;-87
2022/05/07 07:49:50;;;;;;;6.03;1.88;;;;;;;;;;4987207;28;20065;-88
2022/05/07 07:52:18;;;;;;;4.13;1.67;;;;;;;;;;4978404;28;20050;-89
2022/05/07 07:54:45;;;;;;;4.53;1.40;;;;;;;;;;4978540;28;20056;-89
2022/05/07 07:57:12;;;;;;;4.47;1.58;;;;;;;;;;4978570;28;20089;-88
2022/05/07 07:59:39;;;;;;;3.72;1.27;;;;;;;;;;4978445;28;20172;-89
2022/05/07 08:02:07;;;;;;;3.75;1.30;;;;;;;;;;4978861;28;20405;-89
2022/05/07 08:04:34;;;;;;;2.75;1.23;;;;;;;;;;4970625;28;20058;-89
2022/05/07 08:12:33;;;;;;;3.65;1.13;;;;;;;;;;4975970;28;20050;-89
2022/05/07 08:15:00;;;;;;;1.55;1.00;;;;;;;;;;4958955;28;20423;-89
2022/05/07 08:17:28;;;;;;;2.92;1.50;;;;;;;;;;4958976;28;20467;-91
2022/05/07 08:19:55;;;;;;;1.88;1.00;;;;;;;;;;4959009;28;20090;-89
2022/05/07 08:22:23;;;;;;;2.65;1.30;;;;;;;;;;4958613;28;20050;-92
2022/05/07 08:24:50;;;;;;;3.40;1.33;;;;;;;;;;4958803;28;20157;-89
2022/05/07 08:27:17;;;;;;;7.47;2.10;;;;;;;;;;4959013;28;20515;-88
2022/05/07 08:29:45;;;;;;;2.40;1.20;;;;;;;;;;4958318;28;20065;-88
2022/05/07 08:32:12;;;;;;;1.95;1.17;;;;;;;;;;4958549;28;20478;-90
2022/05/07 08:34:41;;;;;;;1.33;1.13;;;;;;;;;;4958496;28;20418;-87
2022/05/07 08:37:09;;;;;;;7.28;1.58;;;;;;;;;;4958173;28;20074;-88
2022/05/07 08:39:36;;;;;;;1.73;1.00;;;;;;;;;;4958699;28;20061;-89
2022/05/07 08:42:04;;;;;;;3.40;1.63;;;;;;;;;;4958483;28;20051;-89
2022/05/07 08:44:34;;;;;;;4.68;1.33;;;;;;;;;;4958892;28;20051;-86
2022/05/07 08:47:01;;;;;;;3.17;1.23;;;;;;;;;;4958195;28;20138;-89
2022/05/07 08:49:29;;;;;;;5.30;1.00;;;;;;;;;;4958323;28;20054;-91
2022/05/07 08:51:56;;;;;;;1.17;1.08;;;;;;;;;;4957801;28;20070;-92
2022/05/07 08:54:23;;;;;;;3.00;1.10;;;;;;;;;;4958350;28;20070;-90
2022/05/07 08:56:52;;;;;;;1.90;1.15;;;;;;;;;;4958437;28;20058;-91
2022/05/07 08:59:19;;;;;;;2.00;0.95;;;;;;;;;;4958176;28;20141;-89
2022/05/07 09:01:46;;;;;;;3.42;1.20;;;;;;;;;;4958083;28;20070;-88
2022/05/07 09:04:13;;;;;;;3.72;1.40;;;;;;;;;;4957785;28;20089;-89
2022/05/07 09:06:40;;;;;;;3.28;0.90;;;;;;;;;;4957546;28;20130;-88
2022/05/07 09:09:08;;;;;;;6.68;1.35;;;;;;;;;;4958587;28;20057;-89
2022/05/07 09:11:39;;;;;;;2.05;1.10;;;;;;;;;;4958599;28;20470;-92
2022/05/07 09:14:06;;;;;;;2.97;1.20;;;;;;;;;;4975512;28;20096;-89
2022/05/07 09:16:40;;;;;;;3.88;1.40;;;;;;;;;;4958131;28;20455;-91
2022/05/07 09:19:28;;;;;;;1.90;1.40;;;;;;;;;;4958736;28;20143;-91
2022/05/07 09:22:07;;;;;;;1.25;1.00;;;;;;;;;;4958269;28;20070;-90
2022/05/07 09:24:34;;;;;;;1.60;1.13;;;;;;;;;;4957934;28;20054;-91
2022/05/07 09:27:04;;;;;;;3.33;1.15;;;;;;;;;;4958025;28;20038;-92
2022/05/07 09:29:32;;;;;;;2.65;0.90;;;;;;;;;;4958394;28;20101;-92
2022/05/07 09:32:16;;;;;;;1.88;1.05;;;;;;;;;;4958347;28;20474;-90
2022/05/07 09:37:37;;;;;;;1.02;0.73;;;;;;;;;;4974626;28;20050;-93
2022/05/07 09:40:05;;;;;;;1.45;0.90;;;;;;;;;;4958162;28;20047;-92
2022/05/07 09:42:33;;;;;;;3.25;1.13;;;;;;;;;;4975762;28;20051;-92
2022/05/07 09:45:01;;;;;;;3.13;0.60;;;;;;;;;;4974954;28;20133;-91
2022/05/07 09:47:29;;;;;;;1.27;1.00;;;;;;;;;;4957915;28;20054;-92
2022/05/07 09:58:18;;;;;;;3.10;0.70;;;;;;;;;;4974646;28;20145;-90
2022/05/07 10:01:03;;;;;;;1.13;0.65;;;;;;;;;;4957285;28;20143;-90
2022/05/07 10:03:52;;;;;;;2.00;0.93;;;;;;;;;;4957703;28;20059;-90
2022/05/07 10:06:37;;;;;;;1.35;0.85;;;;;;;;;;4974714;28;20047;-92
2022/05/07 10:09:23;;;;;;;2.10;0.85;;;;;;;;;;4957679;28;20517;-89
2022/05/07 10:11:53;;;;;;;2.65;0.95;;;;;;;;;;4958057;28;20137;-88
2022/05/07 10:14:26;;;;;;;2.88;0.88;;;;;;;;;;4957584;28;20129;-89
2022/05/07 10:17:00;;;;;;;2.67;0.80;;;;;;;;;;4957642;28;20054;-89
2022/05/07 10:19:41;;;;;;;0.95;0.85;;;;;;;;;;4960422;28;20043;-90
2022/05/07 10:22:16;;;;;;;0.73;0.70;;;;;;;;;;4961706;28;20162;-89
2022/05/07 10:24:43;;;;;;;3.25;0.80;;;;;;;;;;4978379;28;20448;-91
2022/05/07 10:27:30;;;;;;;1.00;0.88;;;;;;;;;;4961022;28;20086;-89
2022/05/07 10:30:04;;;;;;;0.82;0.68;;;;;;;;;;4961335;28;20086;-88
2022/05/07 10:32:44;;;;;;;3.95;0.73;;;;;;;;;;4977866;28;20055;-89
2022/05/07 10:35:11;;;;;;;2.53;0.88;;;;;;;;;;4961110;28;20054;-90
2022/05/07 10:37:42;;;;;;;1.60;0.77;;;;;;;;;;4977621;28;20057;-88
2022/05/07 10:40:12;;;;;;;1.38;0.80;;;;;;;;;;4961289;28;20097;-91
2022/05/07 10:42:40;;;;;;;2.13;0.77;;;;;;;;;;4960866;28;20077;-88
2022/05/07 10:45:20;;;;;;;1.65;0.60;;;;;;;;;;4960950;28;20043;-89
2022/05/07 10:47:57;;;;;;;2.17;0.95;;;;;;;;;;4961111;28;20145;-91
2022/05/07 10:50:51;;;;;;;0.88;0.80;;;;;;;;;;4963489;28;20050;-91
2022/05/07 10:53:19;;;;;;;1.88;0.93;;;;;;;;;;4960675;28;20434;-91
2022/05/07 10:55:46;;;;;;;1.17;0.80;;;;;;;;;;4960646;28;20134;-90
2022/05/07 10:58:14;;;;;;;4.63;1.10;;;;;;;;;;4977681;28;20057;-90
2022/05/07 11:00:41;;;;;;;1.08;0.80;;;;;;;;;;4960138;28;20054;-90
2022/05/07 11:03:12;;;;;;;2.40;0.93;;;;;;;;;;4977458;28;20069;-90
2022/05/07 11:05:41;;;;;;;2.50;1.00;;;;;;;;;;4960492;28;20051;-89
2022/05/07 11:08:09;;;;;;;2.55;0.70;;;;;;;;;;4960958;28;20111;-90
2022/05/07 11:10:37;;;;;;;0.75;0.75;;;;;;;;;;4960498;28;20074;-91
2022/05/07 11:13:05;;;;;;;2.05;1.20;;;;;;;;;;4960591;28;20055;-91
2022/05/07 11:15:32;;;;;;;2.70;0.80;;;;;;;;;;4959932;28;20054;-91
2022/05/07 11:18:00;;;;;;;1.67;1.00;;;;;;;;;;4960454;28;20085;-90
2022/05/07 11:20:28;;;;;;;0.98;0.80;;;;;;;;;;4977413;28;20042;-90
2022/05/07 11:23:03;;;;;;;1.95;0.80;;;;;;;;;;4960271;28;20051;-89
2022/05/07 11:25:30;;;;;;;0.73;0.70;;;;;;;;;;4959879;28;20090;-89
2022/05/07 11:27:58;;;;;;;1.60;0.80;;;;;;;;;;4976958;28;20465;-88
2022/05/07 11:30:25;;;;;;;3.03;0.95;;;;;;;;;;4959763;28;20107;-90
2022/05/07 11:32:54;;;;;;;1.15;0.82;;;;;;;;;;4960650;28;20126;-90
2022/05/07 11:35:27;;;;;;;1.67;0.93;;;;;;;;;;4959901;28;20129;-90
2022/05/07 11:37:54;;;;;;;2.50;0.70;;;;;;;;;;4959945;28;20126;-91
2022/05/07 11:40:28;;;;;;;2.03;0.65;;;;;;;;;;4976558;28;20491;-92
2022/05/07 11:45:42;;;;;;;2.25;0.80;;;;;;;;;;4976757;28;20078;-88
2022/05/07 11:48:23;;;;;;;7.03;1.23;;;;;;;;;;4959743;28;20085;-87
2022/05/07 11:50:52;;;;;;;3.25;0.90;;;;;;;;;;4959499;28;20063;-90
2022/05/07 11:53:20;;;;;;;0.88;0.80;;;;;;;;;;4976367;28;20137;-91
2022/05/07 11:55:49;;;;;;;2.33;1.25;;;;;;;;;;4959223;28;20054;-89
2022/05/07 11:58:23;;;;;;;1.75;0.50;;;;;;;;;;4976266;28;20133;-89
2022/05/07 12:00:57;;;;;;;1.73;1.27;;;;;;;;;;4960634;28;20086;-90
2022/05/07 12:03:26;;;;;;;1.17;0.80;;;;;;;;;;4975867;28;20078;-88
2022/05/07 12:05:55;;;;;;;4.13;1.05;;;;;;;;;;4959649;28;20097;-92
2022/05/07 12:08:23;;;;;;;3.60;1.20;;;;;;;;;;4963552;28;20145;-90
2022/05/07 12:10:52;;;;;;;2.53;0.75;;;;;;;;;;4963900;28;20384;-89
2022/05/07 12:13:20;;;;;;;1.40;0.88;;;;;;;;;;4961449;28;20064;-94
2022/05/07 12:18:35;;;;;;;2.35;0.90;;;;;;;;;;4976257;28;20389;-92
2022/05/07 12:21:03;;;;;;;1.73;0.65;;;;;;;;;;4977491;28;20050;-92
2022/05/07 12:31:50;;;;;;;2.75;0.90;;;;;;;;;;4975907;28;20055;-90
2022/05/07 12:34:17;;;;;;;1.50;0.82;;;;;;;;;;4958932;28;20050;-90
2022/05/07 12:36:45;;;;;;;0.80;0.80;;;;;;;;;;4959142;28;20084;-89
2022/05/07 12:39:12;;;;;;;2.15;0.90;;;;;;;;;;4958868;28;20046;-90
2022/05/07 12:41:42;;;;;;;1.48;0.90;;;;;;;;;;4958555;28;20062;-91
2022/05/07 12:44:11;;;;;;;3.35;1.10;;;;;;;;;;4975979;28;20392;-89
2022/05/07 12:46:38;;;;;;;0.90;0.90;;;;;;;;;;4958506;28;20054;-91
2022/05/07 12:49:05;;;;;;;0.75;0.70;;;;;;;;;;4975839;28;20057;-89
2022/05/07 12:51:32;;;;;;;0.95;0.95;;;;;;;;;;4958425;28;20129;-91
2022/05/07 12:53:59;;;;;;;3.08;0.90;;;;;;;;;;4958806;28;20074;-90
2022/05/07 12:56:27;;;;;;;1.83;0.80;;;;;;;;;;4958779;28;20595;-89
2022/05/07 12:58:54;;;;;;;1.08;0.70;;;;;;;;;;4958862;28;20101;-91
2022/05/07 13:01:21;;;;;;;1.38;0.80;;;;;;;;;;4958697;28;20138;-91
2022/05/07 13:03:49;;;;;;;4.38;0.80;;;;;;;;;;4958768;28;20178;-90
2022/05/07 13:06:16;;;;;;;4.45;1.27;;;;;;;;;;4965891;28;20076;-90
2022/05/07 13:08:43;;;;;;;2.63;0.80;;;;;;;;;;4971395;28;20120;-89
2022/05/07 13:11:10;;;;;;;4.47;1.20;;;;;;;;;;4958695;28;20101;-92
2022/05/07 13:13:37;;;;;;;2.20;0.88;;;;;;;;;;4975606;28;20141;-93
2022/05/07 13:16:04;;;;;;;3.03;1.30;;;;;;;;;;4976467;28;20514;-90
2022/05/07 13:18:32;;;;;;;1.30;0.90;;;;;;;;;;4972528;28;20051;-89
2022/05/07 13:20:59;;;;;;;1.42;1.20;;;;;;;;;;4973840;28;20060;-89
2022/05/07 13:23:26;;;;;;;1.00;0.80;;;;;;;;;;4973978;28;20142;-91
2022/05/07 13:25:54;;;;;;;1.85;0.95;;;;;;;;;;4974739;28;20078;-93
2022/05/07 13:28:21;;;;;;;2.05;0.90;;;;;;;;;;4974642;28;20074;-93
2022/05/07 13:30:48;;;;;;;0.90;0.82;;;;;;;;;;4974535;28;20137;-94
2022/05/07 13:33:15;;;;;;;2.53;1.10;;;;;;;;;;4974425;28;20047;-91
2022/05/07 13:35:42;;;;;;;1.55;0.90;;;;;;;;;;4974281;28;20085;-91
2022/05/07 13:38:09;;;;;;;2.90;1.13;;;;;;;;;;4974293;28;20051;-92
2022/05/07 13:40:37;;;;;;;1.08;0.75;;;;;;;;;;4974179;28;20547;-91
2022/05/07 13:43:04;;;;;;;2.13;0.90;;;;;;;;;;4973765;28;20479;-91
2022/05/07 13:45:31;;;;;;;2.22;1.02;;;;;;;;;;4973551;28;20046;-92
2022/05/07 13:47:58;;;;;;;2.95;0.85;;;;;;;;;;4974224;28;20061;-91
2022/05/07 13:50:26;;;;;;;1.20;1.00;;;;;;;;;;4973661;28;20083;-92
2022/05/07 13:52:53;;;;;;;22.35;1.92;;;;;;;;;;4977500;28;20546;-91
2022/05/07 13:55:20;;;;;;;23.38;2.10;;;;;;;;;;4980336;28;20089;-90
2022/05/07 13:57:47;;;;;;;3.22;1.30;;;;;;;;;;4980255;28;20054;-91
2022/05/07 14:00:16;;;;;;;2.47;1.00;;;;;;;;;;4980554;28;20069;-91
2022/05/07 14:02:45;;;;;;;1.88;1.20;;;;;;;;;;4980871;28;20114;-87
2022/05/07 14:05:13;;;;;;;1.52;0.80;;;;;;;;;;4980116;28;20078;-91
2022/05/07 14:07:40;;;;;;;1.25;0.80;;;;;;;;;;4980350;28;20129;-90
2022/05/07 14:10:08;;;;;;;2.13;1.08;;;;;;;;;;4980164;28;20462;-89
2022/05/07 14:12:36;;;;;;;2.55;0.90;;;;;;;;;;4980247;28;20055;-90
2022/05/07 14:15:03;;;;;;;1.27;0.93;;;;;;;;;;4980215;28;20114;-90
2022/05/07 14:17:31;;;;;;;1.85;0.93;;;;;;;;;;4980150;28;20486;-93
2022/05/07 14:19:59;;;;;;;0.95;0.75;;;;;;;;;;4980128;28;20404;-89
2022/05/07 14:22:28;;;;;;;1.25;0.85;;;;;;;;;;4979733;28;20054;-89
2022/05/07 14:24:55;;;;;;;2.47;1.13;;;;;;;;;;4981684;28;20491;-90
2022/05/07 14:27:31;;;;;;;2.75;0.90;;;;;;;;;;4982469;28;20442;-90
2022/05/07 14:29:58;;;;;;;7.30;1.15;;;;;;;;;;4980282;28;20078;-91
2022/05/07 14:32:26;;;;;;;2.10;0.90;;;;;;;;;;4980055;28;20051;-91
2022/05/07 14:34:53;;;;;;;1.33;1.20;;;;;;;;;;4979970;28;20101;-90
2022/05/07 14:37:20;;;;;;;0.93;0.75;;;;;;;;;;4979786;28;20055;-89
2022/05/07 14:39:47;;;;;;;3.95;1.00;;;;;;;;;;4980185;28;20081;-89
2022/05/07 14:42:15;;;;;;;1.83;0.95;;;;;;;;;;4979912;28;20138;-89
2022/05/07 14:44:42;;;;;;;4.13;1.13;;;;;;;;;;4979478;28;20159;-89
2022/05/07 14:47:09;;;;;;;0.80;0.80;;;;;;;;;;4979946;28;20055;-91
2022/05/07 14:49:36;;;;;;;2.60;1.00;;;;;;;;;;4979545;28;20054;-91
2022/05/07 14:52:04;;;;;;;3.38;1.20;;;;;;;;;;4979907;28;20142;-90
2022/05/07 14:54:41;;;;;;;3.20;0.90;;;;;;;;;;4979983;28;20063;-91
2022/05/07 14:57:08;;;;;;;4.20;1.23;;;;;;;;;;4979575;28;20472;-91
2022/05/07 14:59:36;;;;;;;4.15;1.05;;;;;;;;;;4979616;28;20135;-94
2022/05/07 15:02:03;;;;;;;1.58;0.90;;;;;;;;;;4979874;28;20567;-90
2022/05/07 15:04:31;;;;;;;0.93;0.70;;;;;;;;;;4976271;28;20555;-89
2022/05/07 15:07:06;;;;;;;5.50;1.33;;;;;;;;;;4977176;28;20051;-89
2022/05/07 15:12:18;;;;;;;3.03;1.25;;;;;;;;;;4977642;28;20141;-89
2022/05/07 15:14:46;;;;;;;2.63;0.80;;;;;;;;;;4976269;28;20134;-89
2022/05/07 15:17:13;;;;;;;2.40;0.90;;;;;;;;;;4976712;28;20085;-90
2022/05/07 15:19:40;;;;;;;0.90;0.90;;;;;;;;;;4976683;28;20470;-90
2022/05/07 15:22:08;;;;;;;1.48;1.10;;;;;;;;;;4976091;28;20058;-90
2022/05/07 15:24:35;;;;;;;4.15;0.95;;;;;;;;;;4976054;28;20576;-90
2022/05/07 15:27:06;;;;;;;2.17;1.10;;;;;;;;;;4976613;28;20498;-92
2022/05/07 15:29:34;;;;;;;1.40;1.10;;;;;;;;;;4976141;28;20507;-89
2022/05/07 15:37:33;;;;;;;1.98;1.20;;;;;;;;;;4977107;28;20109;-89
2022/05/07 15:40:01;;;;;;;4.75;1.40;;;;;;;;;;4975850;28;20522;-87
2022/05/07 15:42:30;;;;;;;1.02;0.90;;;;;;;;;;4975983;28;20046;-89
2022/05/07 15:44:57;;;;;;;0.80;0.80;;;;;;;;;;4975717;28;20054;-90
2022/05/07 15:47:25;;;;;;;2.88;0.95;;;;;;;;;;4975937;28;20051;-92
2022/05/07 15:49:52;;;;;;;1.00;0.80;;;;;;;;;;4975660;28;20074;-90